Clifty, Kentucky
Current Conditions -  °F | °C
As of 6:15 PM on Friday 28 Nov 2014 (Local Time) from K2I0 Reporting Station
Clear Clear  
Wind Chill: 37°   Ceiling: Unl
Heat Index: 43°   Visibility: 10mi
Dew Point: 28°   Wind: 10mph
Humidity: 56%   Direction: 180°S
Pressure: 30.1"   Gusts: NA
Location:  37°N, 87.15°W
Report Text: K2I0 290015Z AUTO 18009KT 10SM CLR 06/M02 A3010 RMK AO2 T00601023
Loading
Personal Weather Stations






























Interactive Weather Map New forecast layout! Learn more

10-Day Weather Forecast

Advertisements
Track Severe Weather on mobile